Terminal Aerodrome Forecast
Issued by NWS

Home | Current Version | Previous Version | Text Only | Print | Product List | Glossary On
Versions: 1 2 3 4 5 6 7 8 9 10 11 12
799
FTUS45 KTFX 250520
TAFLWT
TAF
KLWT 250520Z 2506/2606 27015G28KT P6SM BKN080
     FM250800 27015G27KT P6SM VCSH SCT020 BKN045
     FM251500 30017G26KT P6SM SCT020 BKN030 PROB30 2515/2521 4SM
      -SHRA OVC020
     FM252100 31017G25KT P6SM BKN040 PROB30 2521/2524 4SM -SHRA
      OVC040=

USA.gov is the U.S. government's official web portal to all federal, state and local government web resources and services.